OKA3111 ZBTJ-ZLIC
Flight info
| Callsign | OKA3111 |
|---|---|
| Flight time | N/A |
| Altitude | 25600 |
| Route | PEGSO B215 APOGO W218 TUTGO W220 NIRUV B215 YHD |
| Aircraft | B738/M-SDE2E3FGHIRWXY/LB1 |
Departure
| Time | 2026-05-01 13:54 |
|---|---|
| Airport | Tianjin Binhai International Airport (ZBTJ) |
Arrival
| Time | N/A |
|---|---|
| Airport | Yinchuan Hedong International Airport (ZLIC) |
| Time | Latitude | Longitude | Altitude | Speed | Heading |
|---|---|---|---|---|---|
| 2026-05-01 13:42 | 39.12877 | 117.35841 | 18 ft | 0 kts | 250° |
| 2026-05-01 13:45 | 39.12878 | 117.35844 | 18 ft | 2 kts | 250° |
| 2026-05-01 13:45 | 39.12884 | 117.35867 | 20 ft | 3 kts | 259° |
| 2026-05-01 13:45 | 39.12886 | 117.35892 | 19 ft | 3 kts | 272° |
| 2026-05-01 13:46 | 39.12883 | 117.35917 | 18 ft | 3 kts | 289° |
| 2026-05-01 13:46 | 39.12875 | 117.35940 | 19 ft | 3 kts | 310° |
| 2026-05-01 13:46 | 39.12861 | 117.35955 | 21 ft | 2 kts | 333° |
| 2026-05-01 13:46 | 39.12858 | 117.35957 | 19 ft | 0 kts | 335° |
| 2026-05-01 13:48 | 39.12862 | 117.35955 | 21 ft | 3 kts | 335° |
| 2026-05-01 13:48 | 39.12898 | 117.35950 | 19 ft | 7 kts | 11° |
| 2026-05-01 13:48 | 39.12924 | 117.36008 | 19 ft | 9 kts | 91° |
| 2026-05-01 13:48 | 39.12891 | 117.36083 | 19 ft | 11 kts | 126° |
| 2026-05-01 13:49 | 39.12844 | 117.36165 | 18 ft | 12 kts | 126° |
| 2026-05-01 13:49 | 39.12791 | 117.36258 | 20 ft | 14 kts | 126° |
| 2026-05-01 13:49 | 39.12717 | 117.36327 | 19 ft | 12 kts | 127° |
| 2026-05-01 13:49 | 39.12730 | 117.36434 | 18 ft | 13 kts | 62° |
| 2026-05-01 13:50 | 39.12770 | 117.36541 | 18 ft | 14 kts | 63° |
| 2026-05-01 13:50 | 39.12813 | 117.36658 | 18 ft | 15 kts | 65° |
| 2026-05-01 13:50 | 39.12873 | 117.36771 | 19 ft | 16 kts | 18° |
| 2026-05-01 13:50 | 39.12981 | 117.36741 | 19 ft | 17 kts | 333° |
| 2026-05-01 13:51 | 39.13087 | 117.36677 | 18 ft | 18 kts | 335° |
| 2026-05-01 13:51 | 39.13203 | 117.36609 | 18 ft | 19 kts | 335° |
| 2026-05-01 13:51 | 39.13317 | 117.36535 | 21 ft | 19 kts | 332° |
| 2026-05-01 13:51 | 39.13436 | 117.36462 | 18 ft | 20 kts | 335° |
| 2026-05-01 13:52 | 39.13557 | 117.36388 | 19 ft | 19 kts | 334° |
| 2026-05-01 13:52 | 39.13676 | 117.36315 | 18 ft | 19 kts | 334° |
| 2026-05-01 13:52 | 39.13802 | 117.36238 | 19 ft | 21 kts | 334° |
| 2026-05-01 13:52 | 39.13927 | 117.36161 | 20 ft | 19 kts | 334° |
| 2026-05-01 13:53 | 39.14045 | 117.36103 | 18 ft | 17 kts | 1° |
| 2026-05-01 13:53 | 39.14074 | 117.36304 | 18 ft | 14 kts | 154° |
| 2026-05-01 13:53 | 39.13891 | 117.36415 | 18 ft | 61 kts | 154° |
| 2026-05-01 13:54 | 39.13299 | 117.36780 | 20 ft | 126 kts | 154° |
| 2026-05-01 13:54 | 39.12348 | 117.37402 | 55 ft | 176 kts | 150° |
| 2026-05-01 13:54 | 39.11268 | 117.38125 | 830 ft | 173 kts | 151° |
| 2026-05-01 13:54 | 39.10206 | 117.38842 | 1708 ft | 173 kts | 155° |
| 2026-05-01 13:55 | 39.09062 | 117.39528 | 2203 ft | 195 kts | 160° |
| 2026-05-01 13:55 | 39.07728 | 117.40282 | 2429 ft | 223 kts | 160° |
| 2026-05-01 13:55 | 39.06281 | 117.41126 | 2940 ft | 232 kts | 160° |
| 2026-05-01 13:55 | 39.04810 | 117.42001 | 3601 ft | 240 kts | 159° |
| 2026-05-01 13:56 | 39.03248 | 117.42934 | 4220 ft | 253 kts | 159° |
| 2026-05-01 13:56 | 39.01630 | 117.43904 | 4974 ft | 260 kts | 158° |
| 2026-05-01 13:56 | 38.99998 | 117.44931 | 5835 ft | 263 kts | 150° |
| 2026-05-01 13:56 | 38.98681 | 117.46595 | 6685 ft | 272 kts | 127° |
| 2026-05-01 13:57 | 38.97772 | 117.48754 | 7475 ft | 276 kts | 120° |
| 2026-05-01 13:57 | 38.97316 | 117.50297 | 7940 ft | 285 kts | 102° |
| 2026-05-01 13:57 | 38.97593 | 117.53720 | 9028 ft | 292 kts | 79° |
| 2026-05-01 13:57 | 38.98013 | 117.56250 | 9786 ft | 295 kts | 81° |
| 2026-05-01 13:58 | 38.98383 | 117.58860 | 10497 ft | 298 kts | 82° |
| 2026-05-01 13:58 | 38.98715 | 117.61508 | 11213 ft | 302 kts | 83° |
| 2026-05-01 13:58 | 38.99031 | 117.64185 | 11925 ft | 304 kts | 84° |
| 2026-05-01 13:58 | 38.98914 | 117.66883 | 12600 ft | 304 kts | 110° |
| 2026-05-01 13:59 | 38.97919 | 117.69312 | 12939 ft | 317 kts | 134° |
| 2026-05-01 13:59 | 38.96109 | 117.70990 | 13129 ft | 331 kts | 161° |
| 2026-05-01 13:59 | 38.93814 | 117.71665 | 13311 ft | 348 kts | 174° |
| 2026-05-01 13:59 | 38.91391 | 117.71612 | 13525 ft | 360 kts | 196° |
| 2026-05-01 14:00 | 38.89120 | 117.70262 | 14056 ft | 363 kts | 217° |
| 2026-05-01 14:00 | 38.87366 | 117.67952 | 14707 ft | 364 kts | 236° |
| 2026-05-01 14:00 | 38.86323 | 117.65006 | 15351 ft | 366 kts | 256° |
| 2026-05-01 14:00 | 38.85890 | 117.61781 | 15985 ft | 368 kts | 261° |
| 2026-05-01 14:01 | 38.85864 | 117.58487 | 16529 ft | 375 kts | 278° |
| 2026-05-01 14:01 | 38.86591 | 117.55258 | 17168 ft | 379 kts | 288° |
| 2026-05-01 14:01 | 38.87527 | 117.52087 | 17790 ft | 381 kts | 289° |
| 2026-05-01 14:01 | 38.88214 | 117.49823 | 18204 ft | 383 kts | 289° |
| 2026-05-01 14:02 | 38.89160 | 117.46658 | 18702 ft | 386 kts | 289° |
| 2026-05-01 14:02 | 38.90097 | 117.43421 | 19211 ft | 388 kts | 288° |
| 2026-05-01 14:02 | 38.91026 | 117.40156 | 19724 ft | 390 kts | 288° |
| 2026-05-01 14:02 | 38.91665 | 117.36782 | 20176 ft | 391 kts | 272° |
| 2026-05-01 14:03 | 38.91479 | 117.33305 | 20661 ft | 392 kts | 258° |
| 2026-05-01 14:03 | 38.90546 | 117.30012 | 21130 ft | 395 kts | 244° |
| 2026-05-01 14:03 | 38.89244 | 117.26897 | 21593 ft | 398 kts | 242° |
| 2026-05-01 14:03 | 38.87928 | 117.23810 | 22007 ft | 401 kts | 242° |
| 2026-05-01 14:04 | 38.86598 | 117.20655 | 22426 ft | 404 kts | 243° |
| 2026-05-01 14:04 | 38.85279 | 117.17467 | 22849 ft | 406 kts | 243° |
| 2026-05-01 14:04 | 38.83961 | 117.14253 | 23277 ft | 408 kts | 244° |
| 2026-05-01 14:04 | 38.83085 | 117.12116 | 23540 ft | 409 kts | 244° |
| 2026-05-01 14:05 | 38.81308 | 117.07782 | 24015 ft | 411 kts | 244° |
| 2026-05-01 14:05 | 38.79976 | 117.04542 | 24402 ft | 411 kts | 244° |
| 2026-05-01 14:05 | 38.78643 | 117.01303 | 24783 ft | 411 kts | 244° |
| 2026-05-01 14:05 | 38.77323 | 116.98100 | 25120 ft | 412 kts | 244° |
| 2026-05-01 14:06 | 38.75980 | 116.94848 | 25431 ft | 414 kts | 244° |
| 2026-05-01 14:06 | 38.74626 | 116.91584 | 25468 ft | 415 kts | 244° |
| 2026-05-01 14:06 | 38.73258 | 116.88341 | 25482 ft | 414 kts | 243° |
| 2026-05-01 14:06 | 38.71883 | 116.85105 | 25483 ft | 414 kts | 243° |
| 2026-05-01 14:07 | 38.70503 | 116.81864 | 25489 ft | 414 kts | 243° |
| 2026-05-01 14:07 | 38.69125 | 116.78622 | 25487 ft | 415 kts | 243° |
| 2026-05-01 14:07 | 38.67750 | 116.75383 | 25488 ft | 415 kts | 243° |
| 2026-05-01 14:08 | 38.65031 | 116.68931 | 25477 ft | 414 kts | 247° |
| 2026-05-01 14:08 | 38.64158 | 116.65440 | 25486 ft | 412 kts | 261° |
| 2026-05-01 14:08 | 38.63985 | 116.61793 | 25490 ft | 412 kts | 271° |
| 2026-05-01 14:08 | 38.64090 | 116.58131 | 25486 ft | 412 kts | 272° |
| 2026-05-01 14:09 | 38.64230 | 116.54471 | 25476 ft | 412 kts | 272° |
| 2026-05-01 14:09 | 38.64369 | 116.50808 | 25475 ft | 412 kts | 272° |
| 2026-05-01 14:09 | 38.64497 | 116.47144 | 25479 ft | 413 kts | 271° |
| 2026-05-01 14:09 | 38.64610 | 116.43527 | 25479 ft | 413 kts | 271° |
| 2026-05-01 14:10 | 38.64715 | 116.39857 | 25478 ft | 413 kts | 271° |
| 2026-05-01 14:10 | 38.64814 | 116.36190 | 25475 ft | 413 kts | 271° |
| 2026-05-01 14:10 | 38.64911 | 116.32514 | 25475 ft | 413 kts | 271° |
| 2026-05-01 14:10 | 38.65005 | 116.28842 | 25476 ft | 413 kts | 271° |
| 2026-05-01 14:11 | 38.65099 | 116.25164 | 25475 ft | 414 kts | 271° |
| 2026-05-01 14:11 | 38.65286 | 116.17806 | 25474 ft | 414 kts | 271° |
| 2026-05-01 14:11 | 38.65378 | 116.14122 | 25473 ft | 414 kts | 271° |
| 2026-05-01 14:12 | 38.65613 | 116.10454 | 25461 ft | 416 kts | 280° |
| 2026-05-01 14:12 | 38.66527 | 116.06941 | 25471 ft | 419 kts | 294° |
| 2026-05-01 14:12 | 38.67990 | 116.03764 | 25481 ft | 421 kts | 299° |
| 2026-05-01 14:12 | 38.69584 | 116.00614 | 25467 ft | 422 kts | 300° |
| 2026-05-01 14:13 | 38.71199 | 115.97472 | 25467 ft | 422 kts | 300° |
| 2026-05-01 14:13 | 38.72264 | 115.95391 | 25468 ft | 422 kts | 300° |
| 2026-05-01 14:13 | 38.74404 | 115.91168 | 25469 ft | 422 kts | 300° |
| 2026-05-01 14:13 | 38.75988 | 115.88005 | 25472 ft | 422 kts | 300° |
| 2026-05-01 14:14 | 38.77567 | 115.84832 | 25471 ft | 422 kts | 299° |
| 2026-05-01 14:14 | 38.79143 | 115.81652 | 25470 ft | 423 kts | 299° |
| 2026-05-01 14:14 | 38.80716 | 115.78471 | 25468 ft | 423 kts | 299° |
| 2026-05-01 14:14 | 38.82268 | 115.75329 | 25468 ft | 422 kts | 299° |
| 2026-05-01 14:15 | 38.83839 | 115.72147 | 25463 ft | 422 kts | 299° |
| 2026-05-01 14:15 | 38.85409 | 115.68962 | 25466 ft | 422 kts | 299° |
| 2026-05-01 14:15 | 38.86979 | 115.65777 | 25467 ft | 422 kts | 299° |
| 2026-05-01 14:15 | 38.88545 | 115.62597 | 25467 ft | 422 kts | 299° |
| 2026-05-01 14:16 | 38.90112 | 115.59412 | 25464 ft | 422 kts | 299° |
| 2026-05-01 14:16 | 38.91672 | 115.56217 | 25467 ft | 421 kts | 297° |
| 2026-05-01 14:16 | 38.92740 | 115.52765 | 25467 ft | 415 kts | 280° |
| 2026-05-01 14:16 | 38.93014 | 115.49140 | 25474 ft | 413 kts | 268° |
| 2026-05-01 14:17 | 38.92655 | 115.45489 | 25461 ft | 414 kts | 255° |
| 2026-05-01 14:17 | 38.91645 | 115.42029 | 25476 ft | 414 kts | 248° |
| 2026-05-01 14:17 | 38.90455 | 115.38657 | 25462 ft | 415 kts | 246° |
| 2026-05-01 14:17 | 38.89230 | 115.35300 | 25460 ft | 416 kts | 246° |
| 2026-05-01 14:18 | 38.88005 | 115.31940 | 25461 ft | 416 kts | 246° |
| 2026-05-01 14:18 | 38.86785 | 115.28558 | 25470 ft | 421 kts | 246° |
| 2026-05-01 14:18 | 38.85556 | 115.25111 | 25476 ft | 426 kts | 247° |
| 2026-05-01 14:18 | 38.84739 | 115.22805 | 25476 ft | 430 kts | 247° |
| 2026-05-01 14:19 | 38.83096 | 115.18148 | 25480 ft | 436 kts | 247° |
| 2026-05-01 14:19 | 38.81840 | 115.14587 | 25468 ft | 439 kts | 247° |
| 2026-05-01 14:19 | 38.80581 | 115.11024 | 25461 ft | 439 kts | 247° |
| 2026-05-01 14:19 | 38.79323 | 115.07467 | 25466 ft | 438 kts | 247° |
| 2026-05-01 14:20 | 38.78064 | 115.03909 | 25468 ft | 438 kts | 247° |
| 2026-05-01 14:20 | 38.75543 | 114.96807 | 25466 ft | 438 kts | 247° |
| 2026-05-01 14:20 | 38.74282 | 114.93261 | 25469 ft | 437 kts | 247° |
| 2026-05-01 14:21 | 38.73020 | 114.89716 | 25466 ft | 437 kts | 247° |
| 2026-05-01 14:21 | 38.71776 | 114.86221 | 25469 ft | 437 kts | 247° |
| 2026-05-01 14:21 | 38.70515 | 114.82683 | 25472 ft | 437 kts | 247° |
| 2026-05-01 14:22 | 38.67988 | 114.75603 | 25467 ft | 437 kts | 246° |
| 2026-05-01 14:22 | 38.66723 | 114.72065 | 25468 ft | 437 kts | 246° |
| 2026-05-01 14:22 | 38.65455 | 114.68524 | 25463 ft | 437 kts | 246° |
| 2026-05-01 14:22 | 38.64188 | 114.64988 | 25463 ft | 437 kts | 246° |
| 2026-05-01 14:23 | 38.62919 | 114.61451 | 25462 ft | 438 kts | 246° |
| 2026-05-01 14:23 | 38.61663 | 114.57964 | 25464 ft | 438 kts | 246° |
| 2026-05-01 14:23 | 38.60381 | 114.54434 | 25462 ft | 438 kts | 246° |
| 2026-05-01 14:23 | 38.59095 | 114.50904 | 25461 ft | 438 kts | 246° |
| 2026-05-01 14:24 | 38.57812 | 114.47372 | 25462 ft | 438 kts | 246° |
| 2026-05-01 14:24 | 38.56532 | 114.43840 | 25461 ft | 438 kts | 246° |
| 2026-05-01 14:24 | 38.55251 | 114.40303 | 25460 ft | 439 kts | 246° |
| 2026-05-01 14:24 | 38.53967 | 114.36761 | 25459 ft | 439 kts | 246° |
| 2026-05-01 14:25 | 38.52685 | 114.33231 | 25462 ft | 439 kts | 246° |
| 2026-05-01 14:25 | 38.51401 | 114.29697 | 25462 ft | 439 kts | 246° |
| 2026-05-01 14:25 | 38.50130 | 114.26206 | 25462 ft | 439 kts | 246° |
| 2026-05-01 14:25 | 38.48843 | 114.22675 | 25461 ft | 439 kts | 246° |
| 2026-05-01 14:26 | 38.47554 | 114.19144 | 25464 ft | 439 kts | 246° |
| 2026-05-01 14:26 | 38.44974 | 114.12083 | 25472 ft | 439 kts | 246° |
| 2026-05-01 14:26 | 38.43681 | 114.08552 | 25466 ft | 439 kts | 246° |
| 2026-05-01 14:27 | 38.42389 | 114.05027 | 25463 ft | 439 kts | 246° |
| 2026-05-01 14:27 | 38.41095 | 114.01501 | 25491 ft | 438 kts | 246° |
| 2026-05-01 14:27 | 38.39803 | 113.97983 | 25472 ft | 439 kts | 246° |
| 2026-05-01 14:28 | 38.37234 | 113.90995 | 25487 ft | 438 kts | 246° |
| 2026-05-01 14:28 | 38.35938 | 113.87471 | 25473 ft | 439 kts | 245° |
| 2026-05-01 14:28 | 38.34643 | 113.83956 | 25490 ft | 439 kts | 245° |
| 2026-05-01 14:28 | 38.33339 | 113.80435 | 25488 ft | 439 kts | 245° |
| 2026-05-01 14:29 | 38.32023 | 113.76927 | 25477 ft | 439 kts | 245° |
| 2026-05-01 14:29 | 38.30698 | 113.73421 | 25495 ft | 439 kts | 245° |
| 2026-05-01 14:30 | 38.26738 | 113.62962 | 25496 ft | 440 kts | 245° |
| 2026-05-01 14:30 | 38.25411 | 113.59458 | 25491 ft | 440 kts | 245° |
| 2026-05-01 14:30 | 38.24083 | 113.55953 | 25505 ft | 440 kts | 245° |
| 2026-05-01 14:31 | 38.21419 | 113.48932 | 25503 ft | 441 kts | 245° |
| 2026-05-01 14:31 | 38.20085 | 113.45420 | 25503 ft | 441 kts | 245° |
| 2026-05-01 14:31 | 38.18751 | 113.41912 | 25520 ft | 441 kts | 245° |
| 2026-05-01 14:31 | 38.17795 | 113.39401 | 25518 ft | 441 kts | 245° |
| 2026-05-01 14:32 | 38.16476 | 113.35942 | 25519 ft | 441 kts | 245° |
| 2026-05-01 14:32 | 38.15578 | 113.33566 | 25512 ft | 441 kts | 245° |
| 2026-05-01 14:32 | 38.13837 | 113.28904 | 25509 ft | 441 kts | 245° |
| 2026-05-01 14:32 | 38.12527 | 113.25379 | 25512 ft | 441 kts | 245° |
| 2026-05-01 14:33 | 38.11218 | 113.21859 | 25516 ft | 441 kts | 245° |
| 2026-05-01 14:33 | 38.09906 | 113.18341 | 25508 ft | 441 kts | 245° |
| 2026-05-01 14:33 | 38.08595 | 113.14832 | 25526 ft | 440 kts | 245° |
| 2026-05-01 14:33 | 38.07281 | 113.11320 | 25518 ft | 441 kts | 245° |
| 2026-05-01 14:34 | 38.05965 | 113.07809 | 25522 ft | 441 kts | 245° |
| 2026-05-01 14:34 | 38.04664 | 113.04346 | 25524 ft | 440 kts | 245° |
| 2026-05-01 14:34 | 38.03346 | 113.00839 | 25527 ft | 440 kts | 245° |
| 2026-05-01 14:34 | 38.02028 | 112.97337 | 25525 ft | 440 kts | 245° |
| 2026-05-01 14:35 | 38.00707 | 112.93831 | 25526 ft | 440 kts | 245° |
| 2026-05-01 14:35 | 37.99387 | 112.90333 | 25531 ft | 440 kts | 245° |
| 2026-05-01 14:35 | 37.98065 | 112.86831 | 25524 ft | 440 kts | 245° |
| 2026-05-01 14:35 | 37.96741 | 112.83329 | 25522 ft | 440 kts | 245° |
| 2026-05-01 14:36 | 37.95418 | 112.79833 | 25522 ft | 440 kts | 245° |
| 2026-05-01 14:36 | 37.94113 | 112.76389 | 25534 ft | 439 kts | 245° |
| 2026-05-01 14:36 | 37.92789 | 112.72899 | 25532 ft | 440 kts | 245° |
| 2026-05-01 14:36 | 37.91466 | 112.69415 | 25534 ft | 440 kts | 244° |
| 2026-05-01 14:37 | 37.90139 | 112.65923 | 25534 ft | 440 kts | 244° |
| 2026-05-01 14:37 | 37.88814 | 112.62441 | 25535 ft | 440 kts | 244° |
| 2026-05-01 14:37 | 37.87485 | 112.58953 | 25538 ft | 440 kts | 244° |
| 2026-05-01 14:37 | 37.86102 | 112.55499 | 25532 ft | 440 kts | 242° |
| 2026-05-01 14:38 | 37.84646 | 112.52097 | 25535 ft | 440 kts | 242° |
| 2026-05-01 14:38 | 37.83176 | 112.48707 | 25538 ft | 439 kts | 242° |
| 2026-05-01 14:38 | 37.81720 | 112.45315 | 25530 ft | 439 kts | 242° |
| 2026-05-01 14:38 | 37.80296 | 112.41965 | 25531 ft | 439 kts | 242° |
| 2026-05-01 14:39 | 37.79018 | 112.38466 | 25525 ft | 438 kts | 251° |
| 2026-05-01 14:39 | 37.78270 | 112.34739 | 25536 ft | 438 kts | 259° |
| 2026-05-01 14:39 | 37.77928 | 112.30911 | 25529 ft | 439 kts | 266° |
| 2026-05-01 14:39 | 37.78084 | 112.27053 | 25539 ft | 441 kts | 275° |
| 2026-05-01 14:40 | 37.78467 | 112.23202 | 25530 ft | 442 kts | 275° |
| 2026-05-01 14:40 | 37.78878 | 112.19349 | 25529 ft | 442 kts | 276° |
| 2026-05-01 14:40 | 37.79286 | 112.15495 | 25537 ft | 442 kts | 275° |
| 2026-05-01 14:40 | 37.79676 | 112.11691 | 25533 ft | 443 kts | 275° |
| 2026-05-01 14:41 | 37.80059 | 112.07830 | 25535 ft | 443 kts | 275° |
| 2026-05-01 14:41 | 37.80433 | 112.03969 | 25535 ft | 443 kts | 275° |
| 2026-05-01 14:41 | 37.80802 | 112.00105 | 25539 ft | 443 kts | 275° |
| 2026-05-01 14:41 | 37.81168 | 111.96236 | 25532 ft | 443 kts | 275° |
| 2026-05-01 14:42 | 37.81533 | 111.92370 | 25543 ft | 442 kts | 275° |
| 2026-05-01 14:42 | 37.81897 | 111.88509 | 25542 ft | 442 kts | 275° |
| 2026-05-01 14:42 | 37.82259 | 111.84652 | 25546 ft | 442 kts | 275° |
| 2026-05-01 14:42 | 37.82620 | 111.80791 | 25536 ft | 442 kts | 275° |
| 2026-05-01 14:43 | 37.82976 | 111.76991 | 25546 ft | 441 kts | 275° |
| 2026-05-01 14:43 | 37.83334 | 111.73138 | 25561 ft | 441 kts | 275° |
| 2026-05-01 14:43 | 37.83706 | 111.69289 | 25547 ft | 441 kts | 275° |
| 2026-05-01 14:43 | 37.84123 | 111.65447 | 25554 ft | 441 kts | 276° |
| 2026-05-01 14:44 | 37.84557 | 111.61603 | 25552 ft | 441 kts | 276° |
| 2026-05-01 14:44 | 37.85410 | 111.53935 | 25561 ft | 439 kts | 276° |
| 2026-05-01 14:44 | 37.85825 | 111.50102 | 25557 ft | 440 kts | 275° |
| 2026-05-01 14:45 | 37.86205 | 111.46267 | 25548 ft | 440 kts | 275° |
| 2026-05-01 14:45 | 37.86868 | 111.38639 | 25548 ft | 438 kts | 274° |
| 2026-05-01 14:45 | 37.87190 | 111.34802 | 25561 ft | 438 kts | 274° |
| 2026-05-01 14:46 | 37.87515 | 111.30964 | 25549 ft | 439 kts | 274° |
| 2026-05-01 14:46 | 37.88173 | 111.23275 | 25553 ft | 439 kts | 274° |
| 2026-05-01 14:46 | 37.88392 | 111.20732 | 25546 ft | 439 kts | 274° |
| 2026-05-01 14:47 | 37.88723 | 111.16889 | 25543 ft | 439 kts | 274° |
| 2026-05-01 14:47 | 37.89052 | 111.13049 | 25543 ft | 439 kts | 274° |
| 2026-05-01 14:47 | 37.89487 | 111.07962 | 25540 ft | 439 kts | 274° |
| 2026-05-01 14:48 | 37.90139 | 111.00279 | 25535 ft | 439 kts | 274° |
| 2026-05-01 14:48 | 37.90462 | 110.96440 | 25544 ft | 438 kts | 274° |
| 2026-05-01 14:48 | 37.90997 | 110.90058 | 25526 ft | 439 kts | 274° |
| 2026-05-01 14:49 | 37.91636 | 110.82380 | 25528 ft | 438 kts | 274° |
| 2026-05-01 14:49 | 37.92374 | 110.73457 | 25518 ft | 438 kts | 274° |
| 2026-05-01 14:50 | 37.92956 | 110.68355 | 25519 ft | 440 kts | 281° |
| 2026-05-01 14:50 | 37.95580 | 110.59967 | 25527 ft | 445 kts | 295° |
| 2026-05-01 14:51 | 37.97057 | 110.56520 | 25518 ft | 445 kts | 295° |
| 2026-05-01 14:51 | 38.00022 | 110.49633 | 25513 ft | 445 kts | 295° |
| 2026-05-01 14:52 | 38.02959 | 110.42726 | 25524 ft | 445 kts | 295° |
| 2026-05-01 14:52 | 38.04417 | 110.39265 | 25505 ft | 444 kts | 295° |
| 2026-05-01 14:52 | 38.07302 | 110.32390 | 25514 ft | 445 kts | 295° |
| 2026-05-01 14:53 | 38.08754 | 110.28919 | 25510 ft | 445 kts | 295° |
| 2026-05-01 14:53 | 38.10205 | 110.25449 | 25510 ft | 445 kts | 295° |
| 2026-05-01 14:53 | 38.11655 | 110.21976 | 25513 ft | 445 kts | 295° |
| 2026-05-01 14:53 | 38.13107 | 110.18497 | 25513 ft | 446 kts | 295° |
| 2026-05-01 14:54 | 38.14558 | 110.15017 | 25503 ft | 446 kts | 295° |
| 2026-05-01 14:54 | 38.16007 | 110.11537 | 25506 ft | 446 kts | 295° |
| 2026-05-01 14:54 | 38.17435 | 110.08104 | 25511 ft | 446 kts | 295° |
| 2026-05-01 14:54 | 38.18884 | 110.04616 | 25509 ft | 446 kts | 295° |
| 2026-05-01 14:55 | 38.20335 | 110.01121 | 25501 ft | 447 kts | 295° |
| 2026-05-01 14:55 | 38.21782 | 109.97630 | 25501 ft | 447 kts | 295° |
| 2026-05-01 14:55 | 38.23229 | 109.94136 | 25502 ft | 447 kts | 295° |
| 2026-05-01 14:55 | 38.24674 | 109.90644 | 25500 ft | 447 kts | 295° |
| 2026-05-01 14:56 | 38.26120 | 109.87145 | 25497 ft | 447 kts | 295° |
| 2026-05-01 14:56 | 38.27545 | 109.83692 | 25496 ft | 447 kts | 295° |
| 2026-05-01 14:56 | 38.28988 | 109.80191 | 25499 ft | 447 kts | 295° |
| 2026-05-01 14:56 | 38.30431 | 109.76687 | 25496 ft | 447 kts | 295° |
| 2026-05-01 14:57 | 38.31871 | 109.73186 | 25500 ft | 447 kts | 295° |
| 2026-05-01 14:57 | 38.34752 | 109.66170 | 25492 ft | 447 kts | 295° |
| 2026-05-01 14:57 | 38.36190 | 109.62666 | 25490 ft | 447 kts | 295° |
| 2026-05-01 14:58 | 38.37606 | 109.59209 | 25490 ft | 446 kts | 295° |
| 2026-05-01 14:58 | 38.39025 | 109.55693 | 25492 ft | 446 kts | 294° |
| 2026-05-01 14:58 | 38.40394 | 109.52143 | 25491 ft | 446 kts | 293° |
| 2026-05-01 14:58 | 38.41737 | 109.48577 | 25489 ft | 446 kts | 293° |
| 2026-05-01 14:59 | 38.43071 | 109.45012 | 25490 ft | 446 kts | 293° |
| 2026-05-01 14:59 | 38.44407 | 109.41443 | 25490 ft | 446 kts | 293° |
| 2026-05-01 14:59 | 38.45746 | 109.37875 | 25485 ft | 446 kts | 293° |
| 2026-05-01 14:59 | 38.47087 | 109.34311 | 25485 ft | 446 kts | 293° |
| 2026-05-01 15:00 | 38.49773 | 109.27183 | 25488 ft | 446 kts | 293° |
| 2026-05-01 15:00 | 38.51098 | 109.23666 | 25484 ft | 446 kts | 293° |
| 2026-05-01 15:00 | 38.52438 | 109.20102 | 25483 ft | 446 kts | 293° |
| 2026-05-01 15:01 | 38.53780 | 109.16532 | 25481 ft | 445 kts | 293° |
| 2026-05-01 15:01 | 38.55119 | 109.12964 | 25484 ft | 445 kts | 293° |
| 2026-05-01 15:01 | 38.56456 | 109.09395 | 25487 ft | 445 kts | 293° |
| 2026-05-01 15:01 | 38.57432 | 109.06789 | 25484 ft | 445 kts | 293° |
| 2026-05-01 15:02 | 38.58768 | 109.03218 | 25483 ft | 445 kts | 293° |
| 2026-05-01 15:02 | 38.59651 | 109.00853 | 25486 ft | 445 kts | 293° |
| 2026-05-01 15:02 | 38.61418 | 108.96120 | 25489 ft | 445 kts | 293° |
| 2026-05-01 15:02 | 38.62750 | 108.92545 | 25489 ft | 445 kts | 293° |
| 2026-05-01 15:03 | 38.64082 | 108.88967 | 25494 ft | 445 kts | 293° |
| 2026-05-01 15:03 | 38.65412 | 108.85388 | 25492 ft | 445 kts | 293° |
| 2026-05-01 15:03 | 38.66743 | 108.81803 | 25495 ft | 445 kts | 293° |
| 2026-05-01 15:03 | 38.68069 | 108.78229 | 25501 ft | 445 kts | 293° |
| 2026-05-01 15:04 | 38.69397 | 108.74645 | 25497 ft | 446 kts | 293° |
| 2026-05-01 15:04 | 38.70725 | 108.71060 | 25502 ft | 446 kts | 293° |
| 2026-05-01 15:04 | 38.72051 | 108.67530 | 25504 ft | 446 kts | 294° |
| 2026-05-01 15:04 | 38.73405 | 108.63952 | 25504 ft | 446 kts | 294° |
| 2026-05-01 15:05 | 38.74759 | 108.60381 | 25512 ft | 447 kts | 294° |
| 2026-05-01 15:05 | 38.76116 | 108.56798 | 25510 ft | 447 kts | 294° |
| 2026-05-01 15:05 | 38.77470 | 108.53214 | 25513 ft | 447 kts | 294° |
| 2026-05-01 15:05 | 38.78824 | 108.49624 | 25521 ft | 447 kts | 294° |
| 2026-05-01 15:06 | 38.80178 | 108.46025 | 25518 ft | 448 kts | 293° |
| 2026-05-01 15:06 | 38.81527 | 108.42431 | 25524 ft | 448 kts | 293° |
| 2026-05-01 15:06 | 38.82879 | 108.38826 | 25528 ft | 448 kts | 293° |
| 2026-05-01 15:06 | 38.84209 | 108.35276 | 25526 ft | 448 kts | 293° |
| 2026-05-01 15:07 | 38.85557 | 108.31672 | 25521 ft | 448 kts | 293° |
| 2026-05-01 15:07 | 38.86903 | 108.28067 | 25530 ft | 448 kts | 293° |
| 2026-05-01 15:07 | 38.88248 | 108.24465 | 25531 ft | 448 kts | 293° |
| 2026-05-01 15:07 | 38.89593 | 108.20855 | 25534 ft | 448 kts | 293° |
| 2026-05-01 15:08 | 38.90935 | 108.17251 | 25533 ft | 447 kts | 293° |
| 2026-05-01 15:08 | 38.92275 | 108.13647 | 25533 ft | 447 kts | 293° |
| 2026-05-01 15:08 | 38.93613 | 108.10044 | 25533 ft | 447 kts | 293° |
| 2026-05-01 15:08 | 38.94931 | 108.06490 | 25534 ft | 447 kts | 293° |
| 2026-05-01 15:09 | 38.96267 | 108.02882 | 25537 ft | 447 kts | 293° |
| 2026-05-01 15:09 | 38.97600 | 107.99283 | 25542 ft | 447 kts | 293° |
| 2026-05-01 15:09 | 38.98933 | 107.95677 | 25540 ft | 446 kts | 293° |
| 2026-05-01 15:09 | 39.00242 | 107.92062 | 25543 ft | 446 kts | 291° |
| 2026-05-01 15:10 | 39.01487 | 107.88412 | 25546 ft | 445 kts | 291° |
| 2026-05-01 15:10 | 39.03916 | 107.81093 | 25547 ft | 445 kts | 290° |
| 2026-05-01 15:10 | 39.05135 | 107.77436 | 25555 ft | 445 kts | 290° |
| 2026-05-01 15:11 | 39.06344 | 107.73829 | 25552 ft | 445 kts | 291° |
| 2026-05-01 15:11 | 39.08798 | 107.66524 | 25555 ft | 444 kts | 291° |
| 2026-05-01 15:11 | 39.10055 | 107.62893 | 25550 ft | 444 kts | 292° |
| 2026-05-01 15:12 | 39.11344 | 107.59308 | 25287 ft | 436 kts | 292° |
| 2026-05-01 15:12 | 39.13828 | 107.52411 | 24715 ft | 413 kts | 292° |
| 2026-05-01 15:12 | 39.14982 | 107.49129 | 24443 ft | 403 kts | 289° |
| 2026-05-01 15:13 | 39.14542 | 107.38775 | 23704 ft | 401 kts | 244° |
| 2026-05-01 15:14 | 39.11442 | 107.32833 | 23164 ft | 399 kts | 234° |
| 2026-05-01 15:14 | 39.09806 | 107.29943 | 22860 ft | 399 kts | 235° |
| 2026-05-01 15:14 | 39.06584 | 107.24152 | 22292 ft | 396 kts | 236° |
| 2026-05-01 15:15 | 39.03435 | 107.18432 | 21725 ft | 394 kts | 236° |
| 2026-05-01 15:15 | 39.00272 | 107.12685 | 21163 ft | 392 kts | 236° |
| 2026-05-01 15:16 | 38.97135 | 107.06999 | 20617 ft | 389 kts | 235° |
| 2026-05-01 15:16 | 38.93289 | 107.02217 | 20085 ft | 388 kts | 214° |
| 2026-05-01 15:17 | 38.88770 | 106.98563 | 19556 ft | 385 kts | 214° |
| 2026-05-01 15:18 | 38.82022 | 106.93044 | 18785 ft | 382 kts | 214° |
| 2026-05-01 15:18 | 38.79790 | 106.91195 | 18532 ft | 381 kts | 214° |
| 2026-05-01 15:19 | 38.73756 | 106.86274 | 17774 ft | 377 kts | 212° |
| 2026-05-01 15:19 | 38.69205 | 106.82974 | 17204 ft | 375 kts | 211° |
| 2026-05-01 15:19 | 38.66925 | 106.81352 | 16918 ft | 373 kts | 211° |
| 2026-05-01 15:20 | 38.62449 | 106.78148 | 16358 ft | 362 kts | 211° |
| 2026-05-01 15:20 | 38.60276 | 106.76584 | 16058 ft | 355 kts | 211° |
| 2026-05-01 15:20 | 38.58147 | 106.75048 | 15781 ft | 349 kts | 211° |
| 2026-05-01 15:21 | 38.56043 | 106.73527 | 15508 ft | 345 kts | 212° |
| 2026-05-01 15:21 | 38.53992 | 106.72045 | 15245 ft | 342 kts | 212° |
| 2026-05-01 15:21 | 38.51930 | 106.70556 | 14977 ft | 339 kts | 212° |
| 2026-05-01 15:21 | 38.49872 | 106.69069 | 14717 ft | 341 kts | 212° |
| 2026-05-01 15:22 | 38.45705 | 106.66062 | 14199 ft | 344 kts | 211° |
| 2026-05-01 15:22 | 38.43629 | 106.64566 | 13948 ft | 342 kts | 211° |
| 2026-05-01 15:22 | 38.41556 | 106.63074 | 13680 ft | 341 kts | 211° |
| 2026-05-01 15:23 | 38.39492 | 106.61590 | 13385 ft | 340 kts | 211° |
| 2026-05-01 15:23 | 38.37471 | 106.60136 | 13117 ft | 335 kts | 211° |
| 2026-05-01 15:23 | 38.35461 | 106.58692 | 12851 ft | 329 kts | 212° |
| 2026-05-01 15:23 | 38.33486 | 106.57274 | 12586 ft | 323 kts | 212° |
| 2026-05-01 15:24 | 38.31544 | 106.55881 | 12326 ft | 318 kts | 212° |
| 2026-05-01 15:24 | 38.29630 | 106.54509 | 12065 ft | 314 kts | 212° |
| 2026-05-01 15:24 | 38.27736 | 106.53151 | 11812 ft | 311 kts | 212° |
| 2026-05-01 15:24 | 38.25851 | 106.51802 | 11567 ft | 310 kts | 212° |
| 2026-05-01 15:25 | 38.23973 | 106.50458 | 11313 ft | 309 kts | 212° |
| 2026-05-01 15:25 | 38.22099 | 106.49119 | 11074 ft | 309 kts | 212° |
| 2026-05-01 15:25 | 38.20232 | 106.47784 | 10830 ft | 306 kts | 212° |
| 2026-05-01 15:25 | 38.18415 | 106.46486 | 10578 ft | 301 kts | 212° |
| 2026-05-01 15:26 | 38.16616 | 106.45202 | 10300 ft | 292 kts | 212° |
| 2026-05-01 15:26 | 38.14865 | 106.43953 | 10026 ft | 285 kts | 212° |
| 2026-05-01 15:26 | 38.13147 | 106.42726 | 9747 ft | 283 kts | 212° |
| 2026-05-01 15:26 | 38.11425 | 106.41498 | 9481 ft | 285 kts | 212° |
| 2026-05-01 15:27 | 38.09686 | 106.40259 | 9199 ft | 288 kts | 212° |
| 2026-05-01 15:27 | 38.07937 | 106.39013 | 8919 ft | 289 kts | 212° |
| 2026-05-01 15:27 | 38.06192 | 106.37771 | 8634 ft | 287 kts | 211° |
| 2026-05-01 15:28 | 38.02782 | 106.35218 | 8051 ft | 281 kts | 226° |
| 2026-05-01 15:28 | 38.01807 | 106.33217 | 7787 ft | 265 kts | 258° |
| 2026-05-01 15:28 | 38.01717 | 106.30963 | 7515 ft | 251 kts | 282° |
| 2026-05-01 15:29 | 38.03167 | 106.27214 | 7002 ft | 232 kts | 314° |
| 2026-05-01 15:29 | 38.04259 | 106.25733 | 6751 ft | 229 kts | 314° |
| 2026-05-01 15:29 | 38.06574 | 106.22987 | 6310 ft | 229 kts | 336° |
| 2026-05-01 15:30 | 38.09641 | 106.23171 | 5967 ft | 234 kts | 24° |
| 2026-05-01 15:31 | 38.14847 | 106.26763 | 5868 ft | 185 kts | 27° |
| 2026-05-01 15:31 | 38.17074 | 106.28371 | 5900 ft | 183 kts | 27° |
| 2026-05-01 15:32 | 38.19259 | 106.29948 | 5875 ft | 175 kts | 28° |
| 2026-05-01 15:32 | 38.21252 | 106.31386 | 5851 ft | 161 kts | 27° |
| 2026-05-01 15:33 | 38.24200 | 106.33513 | 5252 ft | 160 kts | 28° |
| 2026-05-01 15:34 | 38.27101 | 106.35606 | 4598 ft | 163 kts | 30° |